KAFW/AFW METAR and TAF weather

Enter ICAO airport designator
Station Type Date Time Source
KAFW METAR 2021/09/16 21:53 UTC NOAA

KAFW 162153Z 08006KT 10SM SCT050 32/17 A2986 RMK AO2 SLP096 T03220172


Station Type Date Time Source
KAFW Decoded METAR 2021/09/16 21:53 UTC NOAA

FORT WORTH ALLIANCE AIRPORT, TX, United States (KAFW) 32-59N 097-19W 233M
Sep 16, 2021 - 05:53 PM EDT / 2021.09.16 2153 UTC
Wind: from the E (080 degrees) at 7 MPH (6 KT):0
Visibility: 10 mile(s):0
Sky conditions: partly cloudy
Temperature: 90.0 F (32.2 C)
Dew Point: 63.0 F (17.2 C)
Relative Humidity: 40%
Pressure (altimeter): 29.86 in. Hg (1011 hPa)
ob: KAFW 162153Z 08006KT 10SM SCT050 32/17 A2986 RMK AO2 SLP096 T03220172
cycle: 22

Station Type Date Time Source
KAFW TAF 2021/09/16 21:54 UTC NOAA

TAF
AMD KAFW 162051Z 1621/1718 10009KT P6SM SCT060

Example: see airport list